sensor_id;sensor_type;location;lat;lon;timestamp;P1;durP1;ratioP1;P2;durP2;ratioP2
21170;SDS011;10743;52.160;20.910;2023-03-14T00:02:07;191.63;;;56.73;;
21170;SDS011;10743;52.160;20.910;2023-03-14T00:04:34;192.27;;;57.63;;
21170;SDS011;10743;52.160;20.910;2023-03-14T00:07:02;190.77;;;57.43;;
21170;SDS011;10743;52.160;20.910;2023-03-14T00:09:29;197.03;;;58.07;;
21170;SDS011;10743;52.160;20.910;2023-03-14T00:11:56;193.37;;;57.20;;
21170;SDS011;10743;52.160;20.910;2023-03-14T00:14:24;201.60;;;59.03;;
21170;SDS011;10743;52.160;20.910;2023-03-14T00:16:51;190.67;;;57.77;;
21170;SDS011;10743;52.160;20.910;2023-03-14T00:19:18;193.97;;;58.00;;
21170;SDS011;10743;52.160;20.910;2023-03-14T00:21:46;191.50;;;58.37;;
21170;SDS011;10743;52.160;20.910;2023-03-14T00:24:13;196.33;;;58.07;;
21170;SDS011;10743;52.160;20.910;2023-03-14T00:26:40;191.60;;;57.33;;
21170;SDS011;10743;52.160;20.910;2023-03-14T00:29:07;201.77;;;57.93;;
21170;SDS011;10743;52.160;20.910;2023-03-14T00:31:34;196.43;;;58.73;;
21170;SDS011;10743;52.160;20.910;2023-03-14T00:34:02;188.33;;;57.03;;
21170;SDS011;10743;52.160;20.910;2023-03-14T00:36:30;190.67;;;57.47;;
21170;SDS011;10743;52.160;20.910;2023-03-14T00:38:58;191.97;;;58.70;;
21170;SDS011;10743;52.160;20.910;2023-03-14T00:41:25;196.23;;;58.90;;
21170;SDS011;10743;52.160;20.910;2023-03-14T00:43:52;191.10;;;58.20;;
21170;SDS011;10743;52.160;20.910;2023-03-14T00:46:19;194.77;;;58.27;;
21170;SDS011;10743;52.160;20.910;2023-03-14T00:48:47;196.27;;;58.30;;
21170;SDS011;10743;52.160;20.910;2023-03-14T00:51:14;197.77;;;58.57;;
21170;SDS011;10743;52.160;20.910;2023-03-14T00:53:42;189.90;;;58.13;;
21170;SDS011;10743;52.160;20.910;2023-03-14T00:56:10;201.00;;;58.83;;
21170;SDS011;10743;52.160;20.910;2023-03-14T00:58:39;191.37;;;57.87;;
21170;SDS011;10743;52.160;20.910;2023-03-14T01:01:11;192.10;;;56.93;;
21170;SDS011;10743;52.160;20.910;2023-03-14T01:03:42;191.67;;;56.90;;
21170;SDS011;10743;52.160;20.910;2023-03-14T01:06:11;193.47;;;57.23;;
21170;SDS011;10743;52.160;20.910;2023-03-14T01:08:42;195.37;;;58.07;;
21170;SDS011;10743;52.160;20.910;2023-03-14T01:11:12;195.97;;;57.47;;
21170;SDS011;10743;52.160;20.910;2023-03-14T01:13:45;196.27;;;58.77;;
21170;SDS011;10743;52.160;20.910;2023-03-14T01:16:12;189.47;;;56.03;;
21170;SDS011;10743;52.160;20.910;2023-03-14T01:18:42;200.10;;;58.43;;
21170;SDS011;10743;52.160;20.910;2023-03-14T01:21:12;195.60;;;57.63;;
21170;SDS011;10743;52.160;20.910;2023-03-14T01:23:47;196.20;;;57.20;;
21170;SDS011;10743;52.160;20.910;2023-03-14T01:26:16;194.03;;;57.93;;
21170;SDS011;10743;52.160;20.910;2023-03-14T01:28:47;196.33;;;57.60;;
21170;SDS011;10743;52.160;20.910;2023-03-14T01:31:16;200.20;;;57.80;;
21170;SDS011;10743;52.160;20.910;2023-03-14T01:33:44;206.77;;;57.87;;
21170;SDS011;10743;52.160;20.910;2023-03-14T01:36:12;191.73;;;56.53;;
21170;SDS011;10743;52.160;20.910;2023-03-14T01:38:41;197.03;;;57.93;;
21170;SDS011;10743;52.160;20.910;2023-03-14T01:41:12;191.20;;;58.30;;
21170;SDS011;10743;52.160;20.910;2023-03-14T01:43:43;193.13;;;57.83;;
21170;SDS011;10743;52.160;20.910;2023-03-14T01:49:07;192.80;;;57.63;;
21170;SDS011;10743;52.160;20.910;2023-03-14T01:57:24;192.03;;;57.20;;
21170;SDS011;10743;52.160;20.910;2023-03-14T02:02:49;193.03;;;56.93;;
21170;SDS011;10743;52.160;20.910;2023-03-14T02:05:25;188.17;;;56.43;;
21170;SDS011;10743;52.160;20.910;2023-03-14T02:08:02;195.20;;;57.03;;
21170;SDS011;10743;52.160;20.910;2023-03-14T02:10:41;193.80;;;57.43;;
21170;SDS011;10743;52.160;20.910;2023-03-14T02:13:12;187.83;;;56.43;;
21170;SDS011;10743;52.160;20.910;2023-03-14T02:16:01;189.07;;;56.23;;
21170;SDS011;10743;52.160;20.910;2023-03-14T02:18:40;190.93;;;56.90;;
21170;SDS011;10743;52.160;20.910;2023-03-14T02:21:31;190.30;;;56.60;;
21170;SDS011;10743;52.160;20.910;2023-03-14T02:27:11;192.33;;;56.47;;
21170;SDS011;10743;52.160;20.910;2023-03-14T02:30:32;192.97;;;56.87;;
21170;SDS011;10743;52.160;20.910;2023-03-14T02:32:49;189.13;;;56.50;;
21170;SDS011;10743;52.160;20.910;2023-03-14T02:35:32;188.80;;;55.70;;
21170;SDS011;10743;52.160;20.910;2023-03-14T02:38:13;194.07;;;56.63;;
21170;SDS011;10743;52.160;20.910;2023-03-14T02:40:49;189.90;;;55.27;;
21170;SDS011;10743;52.160;20.910;2023-03-14T02:43:17;184.53;;;55.50;;
21170;SDS011;10743;52.160;20.910;2023-03-14T02:45:50;188.83;;;56.57;;
21170;SDS011;10743;52.160;20.910;2023-03-14T02:48:28;189.67;;;55.77;;
21170;SDS011;10743;52.160;20.910;2023-03-14T02:51:01;192.43;;;56.57;;
21170;SDS011;10743;52.160;20.910;2023-03-14T02:53:30;189.80;;;56.20;;
21170;SDS011;10743;52.160;20.910;2023-03-14T02:56:05;205.67;;;57.77;;
21170;SDS011;10743;52.160;20.910;2023-03-14T02:58:35;194.20;;;56.03;;
21170;SDS011;10743;52.160;20.910;2023-03-14T03:01:21;195.63;;;56.20;;
21170;SDS011;10743;52.160;20.910;2023-03-14T03:03:48;193.77;;;56.50;;
21170;SDS011;10743;52.160;20.910;2023-03-14T03:06:18;191.17;;;55.97;;
21170;SDS011;10743;52.160;20.910;2023-03-14T03:08:45;193.30;;;56.27;;
21170;SDS011;10743;52.160;20.910;2023-03-14T03:11:12;194.20;;;56.83;;
21170;SDS011;10743;52.160;20.910;2023-03-14T03:13:40;192.20;;;56.60;;
21170;SDS011;10743;52.160;20.910;2023-03-14T03:16:07;189.60;;;56.37;;
21170;SDS011;10743;52.160;20.910;2023-03-14T03:18:35;190.67;;;56.30;;
21170;SDS011;10743;52.160;20.910;2023-03-14T03:21:02;189.30;;;56.93;;
21170;SDS011;10743;52.160;20.910;2023-03-14T03:23:31;189.63;;;56.93;;
21170;SDS011;10743;52.160;20.910;2023-03-14T03:25:58;194.17;;;57.83;;
21170;SDS011;10743;52.160;20.910;2023-03-14T03:28:25;189.73;;;56.83;;
21170;SDS011;10743;52.160;20.910;2023-03-14T03:30:53;182.70;;;54.97;;
21170;SDS011;10743;52.160;20.910;2023-03-14T03:33:20;189.87;;;56.27;;
21170;SDS011;10743;52.160;20.910;2023-03-14T03:35:50;189.30;;;55.83;;
21170;SDS011;10743;52.160;20.910;2023-03-14T03:38:24;188.17;;;55.17;;
21170;SDS011;10743;52.160;20.910;2023-03-14T03:40:53;189.40;;;55.10;;
21170;SDS011;10743;52.160;20.910;2023-03-14T03:43:23;187.37;;;55.40;;
21170;SDS011;10743;52.160;20.910;2023-03-14T03:45:50;182.73;;;54.63;;
21170;SDS011;10743;52.160;20.910;2023-03-14T03:48:18;189.53;;;55.50;;
21170;SDS011;10743;52.160;20.910;2023-03-14T03:50:46;188.47;;;55.03;;
21170;SDS011;10743;52.160;20.910;2023-03-14T03:53:17;191.30;;;56.60;;
21170;SDS011;10743;52.160;20.910;2023-03-14T03:55:59;191.73;;;55.20;;
21170;SDS011;10743;52.160;20.910;2023-03-14T03:58:28;190.23;;;54.90;;
21170;SDS011;10743;52.160;20.910;2023-03-14T04:00:55;189.53;;;55.13;;
21170;SDS011;10743;52.160;20.910;2023-03-14T04:03:22;186.70;;;54.77;;
21170;SDS011;10743;52.160;20.910;2023-03-14T04:06:09;188.97;;;54.63;;
21170;SDS011;10743;52.160;20.910;2023-03-14T04:08:41;188.57;;;55.20;;
21170;SDS011;10743;52.160;20.910;2023-03-14T04:11:19;191.13;;;54.63;;
21170;SDS011;10743;52.160;20.910;2023-03-14T04:14:06;194.03;;;54.97;;
21170;SDS011;10743;52.160;20.910;2023-03-14T04:16:34;187.80;;;55.17;;
21170;SDS011;10743;52.160;20.910;2023-03-14T04:19:08;190.30;;;54.57;;
21170;SDS011;10743;52.160;20.910;2023-03-14T04:21:35;198.00;;;55.47;;
21170;SDS011;10743;52.160;20.910;2023-03-14T04:24:02;188.53;;;55.20;;
21170;SDS011;10743;52.160;20.910;2023-03-14T04:26:33;186.77;;;54.33;;
21170;SDS011;10743;52.160;20.910;2023-03-14T04:29:00;191.43;;;54.97;;
21170;SDS011;10743;52.160;20.910;2023-03-14T04:31:27;184.73;;;54.17;;
21170;SDS011;10743;52.160;20.910;2023-03-14T04:33:54;188.27;;;54.87;;
21170;SDS011;10743;52.160;20.910;2023-03-14T04:36:31;186.30;;;54.50;;
21170;SDS011;10743;52.160;20.910;2023-03-14T04:39:02;192.57;;;54.50;;
21170;SDS011;10743;52.160;20.910;2023-03-14T04:41:32;185.93;;;54.23;;
21170;SDS011;10743;52.160;20.910;2023-03-14T04:43:59;192.57;;;55.57;;
21170;SDS011;10743;52.160;20.910;2023-03-14T04:46:27;194.50;;;54.90;;
21170;SDS011;10743;52.160;20.910;2023-03-14T04:48:54;184.57;;;54.73;;
21170;SDS011;10743;52.160;20.910;2023-03-14T04:51:23;186.50;;;54.37;;
21170;SDS011;10743;52.160;20.910;2023-03-14T04:53:53;180.60;;;54.00;;
21170;SDS011;10743;52.160;20.910;2023-03-14T04:56:21;192.87;;;55.27;;
21170;SDS011;10743;52.160;20.910;2023-03-14T04:58:48;190.83;;;55.10;;
21170;SDS011;10743;52.160;20.910;2023-03-14T05:01:17;189.37;;;56.27;;
21170;SDS011;10743;52.160;20.910;2023-03-14T05:04:22;192.03;;;56.80;;
21170;SDS011;10743;52.160;20.910;2023-03-14T05:07:00;184.13;;;54.53;;
21170;SDS011;10743;52.160;20.910;2023-03-14T05:09:45;185.67;;;53.80;;
21170;SDS011;10743;52.160;20.910;2023-03-14T05:12:38;183.73;;;54.00;;
21170;SDS011;10743;52.160;20.910;2023-03-14T05:15:25;186.77;;;54.80;;
21170;SDS011;10743;52.160;20.910;2023-03-14T05:18:11;193.73;;;57.00;;
21170;SDS011;10743;52.160;20.910;2023-03-14T05:21:16;190.40;;;55.93;;
21170;SDS011;10743;52.160;20.910;2023-03-14T05:23:49;208.50;;;60.27;;
21170;SDS011;10743;52.160;20.910;2023-03-14T05:26:43;192.77;;;56.37;;
21170;SDS011;10743;52.160;20.910;2023-03-14T05:29:33;198.73;;;57.83;;
21170;SDS011;10743;52.160;20.910;2023-03-14T05:32:08;202.27;;;59.17;;
21170;SDS011;10743;52.160;20.910;2023-03-14T05:34:51;204.13;;;58.87;;
21170;SDS011;10743;52.160;20.910;2023-03-14T05:37:50;195.47;;;58.27;;
21170;SDS011;10743;52.160;20.910;2023-03-14T05:40:38;206.43;;;63.37;;
21170;SDS011;10743;52.160;20.910;2023-03-14T05:43:19;194.20;;;57.43;;
21170;SDS011;10743;52.160;20.910;2023-03-14T05:46:09;186.50;;;55.53;;
21170;SDS011;10743;52.160;20.910;2023-03-14T05:48:57;192.37;;;57.13;;
21170;SDS011;10743;52.160;20.910;2023-03-14T05:51:33;190.83;;;57.07;;
21170;SDS011;10743;52.160;20.910;2023-03-14T05:54:11;182.57;;;55.20;;
21170;SDS011;10743;52.160;20.910;2023-03-14T05:56:45;186.77;;;56.63;;
21170;SDS011;10743;52.160;20.910;2023-03-14T05:59:29;184.03;;;54.73;;
21170;SDS011;10743;52.160;20.910;2023-03-14T06:02:05;176.40;;;54.03;;
21170;SDS011;10743;52.160;20.910;2023-03-14T06:04:55;182.50;;;54.50;;
21170;SDS011;10743;52.160;20.910;2023-03-14T06:07:23;185.03;;;54.17;;
21170;SDS011;10743;52.160;20.910;2023-03-14T06:09:50;183.77;;;54.73;;
21170;SDS011;10743;52.160;20.910;2023-03-14T06:12:18;181.67;;;54.40;;
21170;SDS011;10743;52.160;20.910;2023-03-14T06:14:45;189.20;;;54.77;;
21170;SDS011;10743;52.160;20.910;2023-03-14T06:17:13;189.13;;;55.07;;
21170;SDS011;10743;52.160;20.910;2023-03-14T06:19:48;187.80;;;55.27;;
21170;SDS011;10743;52.160;20.910;2023-03-14T06:22:15;188.33;;;55.23;;
21170;SDS011;10743;52.160;20.910;2023-03-14T06:24:42;191.87;;;55.23;;
21170;SDS011;10743;52.160;20.910;2023-03-14T06:27:09;184.40;;;54.57;;
21170;SDS011;10743;52.160;20.910;2023-03-14T06:29:37;190.60;;;55.13;;
21170;SDS011;10743;52.160;20.910;2023-03-14T06:32:04;192.90;;;55.27;;
21170;SDS011;10743;52.160;20.910;2023-03-14T06:34:31;185.10;;;54.33;;
21170;SDS011;10743;52.160;20.910;2023-03-14T06:36:58;191.90;;;54.73;;
21170;SDS011;10743;52.160;20.910;2023-03-14T06:39:25;195.23;;;55.07;;
21170;SDS011;10743;52.160;20.910;2023-03-14T06:42:01;185.70;;;54.37;;
21170;SDS011;10743;52.160;20.910;2023-03-14T06:44:28;194.50;;;55.07;;
21170;SDS011;10743;52.160;20.910;2023-03-14T06:46:55;185.33;;;54.00;;
21170;SDS011;10743;52.160;20.910;2023-03-14T06:49:22;188.30;;;54.40;;
21170;SDS011;10743;52.160;20.910;2023-03-14T06:51:52;190.37;;;54.20;;
21170;SDS011;10743;52.160;20.910;2023-03-14T06:54:19;200.60;;;55.97;;
21170;SDS011;10743;52.160;20.910;2023-03-14T06:56:46;189.50;;;54.47;;
21170;SDS011;10743;52.160;20.910;2023-03-14T06:59:14;186.23;;;54.30;;
21170;SDS011;10743;52.160;20.910;2023-03-14T07:01:45;182.87;;;54.73;;
21170;SDS011;10743;52.160;20.910;2023-03-14T07:04:14;189.20;;;54.73;;
21170;SDS011;10743;52.160;20.910;2023-03-14T07:06:44;192.90;;;55.27;;
21170;SDS011;10743;52.160;20.910;2023-03-14T07:09:13;197.27;;;55.57;;
21170;SDS011;10743;52.160;20.910;2023-03-14T07:11:47;187.03;;;55.00;;
21170;SDS011;10743;52.160;20.910;2023-03-14T07:14:16;192.80;;;55.00;;
21170;SDS011;10743;52.160;20.910;2023-03-14T07:16:43;194.17;;;55.40;;
21170;SDS011;10743;52.160;20.910;2023-03-14T07:19:11;190.90;;;54.63;;
21170;SDS011;10743;52.160;20.910;2023-03-14T07:21:38;198.97;;;55.53;;
21170;SDS011;10743;52.160;20.910;2023-03-14T07:24:09;201.13;;;56.53;;
21170;SDS011;10743;52.160;20.910;2023-03-14T07:26:36;193.27;;;55.67;;
21170;SDS011;10743;52.160;20.910;2023-03-14T07:29:04;196.33;;;56.27;;
21170;SDS011;10743;52.160;20.910;2023-03-14T07:31:31;194.73;;;55.43;;
21170;SDS011;10743;52.160;20.910;2023-03-14T07:33:59;197.63;;;55.93;;
21170;SDS011;10743;52.160;20.910;2023-03-14T07:36:30;190.07;;;55.70;;
21170;SDS011;10743;52.160;20.910;2023-03-14T07:38:58;196.90;;;55.90;;
21170;SDS011;10743;52.160;20.910;2023-03-14T07:41:49;194.77;;;56.53;;
21170;SDS011;10743;52.160;20.910;2023-03-14T07:44:39;194.30;;;55.90;;
21170;SDS011;10743;52.160;20.910;2023-03-14T07:47:06;200.53;;;56.30;;
21170;SDS011;10743;52.160;20.910;2023-03-14T07:49:33;194.27;;;56.13;;
21170;SDS011;10743;52.160;20.910;2023-03-14T07:52:00;193.47;;;56.23;;
21170;SDS011;10743;52.160;20.910;2023-03-14T07:54:27;198.50;;;57.77;;
21170;SDS011;10743;52.160;20.910;2023-03-14T07:56:54;192.83;;;56.43;;
21170;SDS011;10743;52.160;20.910;2023-03-14T07:59:21;197.03;;;56.20;;
21170;SDS011;10743;52.160;20.910;2023-03-14T08:01:48;192.80;;;55.93;;
21170;SDS011;10743;52.160;20.910;2023-03-14T08:04:15;201.30;;;56.90;;
21170;SDS011;10743;52.160;20.910;2023-03-14T08:06:42;203.20;;;57.00;;
21170;SDS011;10743;52.160;20.910;2023-03-14T08:09:10;204.03;;;57.30;;
21170;SDS011;10743;52.160;20.910;2023-03-14T08:11:37;210.33;;;57.70;;
21170;SDS011;10743;52.160;20.910;2023-03-14T08:14:04;207.67;;;57.47;;
21170;SDS011;10743;52.160;20.910;2023-03-14T08:16:31;204.17;;;57.23;;
21170;SDS011;10743;52.160;20.910;2023-03-14T08:18:58;202.80;;;56.70;;
21170;SDS011;10743;52.160;20.910;2023-03-14T08:21:25;203.03;;;56.83;;
21170;SDS011;10743;52.160;20.910;2023-03-14T08:23:52;204.73;;;57.40;;
21170;SDS011;10743;52.160;20.910;2023-03-14T08:26:19;209.07;;;57.70;;
21170;SDS011;10743;52.160;20.910;2023-03-14T08:28:46;204.33;;;57.17;;
21170;SDS011;10743;52.160;20.910;2023-03-14T08:31:13;199.20;;;57.17;;
21170;SDS011;10743;52.160;20.910;2023-03-14T08:33:40;205.53;;;57.13;;
21170;SDS011;10743;52.160;20.910;2023-03-14T08:36:09;204.17;;;57.87;;
21170;SDS011;10743;52.160;20.910;2023-03-14T08:38:36;202.53;;;57.80;;
21170;SDS011;10743;52.160;20.910;2023-03-14T08:41:03;202.10;;;57.43;;
21170;SDS011;10743;52.160;20.910;2023-03-14T08:43:31;205.10;;;57.73;;
21170;SDS011;10743;52.160;20.910;2023-03-14T08:45:58;202.90;;;57.53;;
21170;SDS011;10743;52.160;20.910;2023-03-14T08:48:27;227.67;;;59.83;;
21170;SDS011;10743;52.160;20.910;2023-03-14T08:51:08;230.73;;;59.97;;
21170;SDS011;10743;52.160;20.910;2023-03-14T08:53:38;233.57;;;61.27;;
21170;SDS011;10743;52.160;20.910;2023-03-14T08:56:06;233.73;;;60.50;;
21170;SDS011;10743;52.160;20.910;2023-03-14T08:58:36;235.17;;;61.00;;
21170;SDS011;10743;52.160;20.910;2023-03-14T09:01:08;233.17;;;61.17;;
21170;SDS011;10743;52.160;20.910;2023-03-14T09:03:36;239.77;;;62.23;;
21170;SDS011;10743;52.160;20.910;2023-03-14T09:06:04;234.63;;;61.23;;
21170;SDS011;10743;52.160;20.910;2023-03-14T09:08:35;236.13;;;60.37;;
21170;SDS011;10743;52.160;20.910;2023-03-14T09:11:06;232.57;;;61.30;;
21170;SDS011;10743;52.160;20.910;2023-03-14T09:13:35;233.10;;;60.40;;
21170;SDS011;10743;52.160;20.910;2023-03-14T09:16:02;233.20;;;63.73;;
21170;SDS011;10743;52.160;20.910;2023-03-14T09:18:30;237.30;;;61.50;;
21170;SDS011;10743;52.160;20.910;2023-03-14T09:20:57;230.48;;;61.05;;
21170;SDS011;10743;52.160;20.910;2023-03-14T09:23:24;238.38;;;61.45;;
21170;SDS011;10743;52.160;20.910;2023-03-14T09:25:55;235.73;;;61.15;;
21170;SDS011;10743;52.160;20.910;2023-03-14T09:28:23;238.43;;;61.80;;
21170;SDS011;10743;52.160;20.910;2023-03-14T09:30:50;245.40;;;62.07;;
21170;SDS011;10743;52.160;20.910;2023-03-14T09:33:18;243.97;;;62.27;;
21170;SDS011;10743;52.160;20.910;2023-03-14T09:35:45;241.98;;;61.78;;
21170;SDS011;10743;52.160;20.910;2023-03-14T09:38:12;242.57;;;62.30;;
21170;SDS011;10743;52.160;20.910;2023-03-14T09:40:40;235.15;;;60.85;;
21170;SDS011;10743;52.160;20.910;2023-03-14T09:43:11;242.57;;;62.10;;
21170;SDS011;10743;52.160;20.910;2023-03-14T09:45:41;241.60;;;62.20;;
21170;SDS011;10743;52.160;20.910;2023-03-14T09:48:14;250.02;;;64.13;;
21170;SDS011;10743;52.160;20.910;2023-03-14T09:50:51;244.93;;;62.60;;
21170;SDS011;10743;52.160;20.910;2023-03-14T09:53:23;244.93;;;64.60;;
21170;SDS011;10743;52.160;20.910;2023-03-14T09:55:58;250.07;;;66.13;;
21170;SDS011;10743;52.160;20.910;2023-03-14T09:58:26;251.97;;;65.80;;
21170;SDS011;10743;52.160;20.910;2023-03-14T10:00:54;251.68;;;63.88;;
21170;SDS011;10743;52.160;20.910;2023-03-14T10:03:33;246.48;;;62.85;;
21170;SDS011;10743;52.160;20.910;2023-03-14T10:06:01;249.77;;;63.17;;
21170;SDS011;10743;52.160;20.910;2023-03-14T10:08:39;252.32;;;64.00;;
21170;SDS011;10743;52.160;20.910;2023-03-14T10:11:14;249.82;;;62.92;;
21170;SDS011;10743;52.160;20.910;2023-03-14T10:13:47;251.85;;;63.35;;
21170;SDS011;10743;52.160;20.910;2023-03-14T10:16:16;251.13;;;63.42;;
21170;SDS011;10743;52.160;20.910;2023-03-14T10:18:44;241.20;;;61.75;;
21170;SDS011;10743;52.160;20.910;2023-03-14T10:24:30;247.57;;;63.38;;
21170;SDS011;10743;52.160;20.910;2023-03-14T10:29:33;240.90;;;61.50;;
21170;SDS011;10743;52.160;20.910;2023-03-14T10:32:02;252.93;;;63.33;;
21170;SDS011;10743;52.160;20.910;2023-03-14T10:34:33;239.20;;;62.00;;
21170;SDS011;10743;52.160;20.910;2023-03-14T10:37:44;250.20;;;63.90;;
21170;SDS011;10743;52.160;20.910;2023-03-14T10:40:00;254.07;;;63.43;;
21170;SDS011;10743;52.160;20.910;2023-03-14T10:42:33;241.33;;;64.20;;
21170;SDS011;10743;52.160;20.910;2023-03-14T10:45:10;241.50;;;62.97;;
21170;SDS011;10743;52.160;20.910;2023-03-14T10:47:53;234.20;;;61.60;;
21170;SDS011;10743;52.160;20.910;2023-03-14T10:52:55;232.53;;;60.80;;
21170;SDS011;10743;52.160;20.910;2023-03-14T10:55:29;231.00;;;61.07;;
21170;SDS011;10743;52.160;20.910;2023-03-14T10:58:18;231.30;;;60.73;;
21170;SDS011;10743;52.160;20.910;2023-03-14T11:00:51;230.40;;;60.70;;
21170;SDS011;10743;52.160;20.910;2023-03-14T11:03:37;240.67;;;76.30;;
21170;SDS011;10743;52.160;20.910;2023-03-14T11:15:15;220.43;;;67.07;;
21170;SDS011;10743;52.160;20.910;2023-03-14T11:20:44;221.60;;;60.47;;
21170;SDS011;10743;52.160;20.910;2023-03-14T11:23:46;223.50;;;60.57;;
21170;SDS011;10743;52.160;20.910;2023-03-14T11:26:41;214.83;;;59.03;;
21170;SDS011;10743;52.160;20.910;2023-03-14T11:32:11;222.13;;;60.37;;
21170;SDS011;10743;52.160;20.910;2023-03-14T11:40:51;217.57;;;59.67;;
21170;SDS011;10743;52.160;20.910;2023-03-14T11:46:23;216.40;;;59.17;;
21170;SDS011;10743;52.160;20.910;2023-03-14T11:49:10;213.63;;;59.80;;
21170;SDS011;10743;52.160;20.910;2023-03-14T11:51:52;207.80;;;58.03;;
21170;SDS011;10743;52.160;20.910;2023-03-14T11:57:10;222.13;;;59.67;;
21170;SDS011;10743;52.160;20.910;2023-03-14T12:00:00;226.63;;;60.10;;
21170;SDS011;10743;52.160;20.910;2023-03-14T12:08:30;226.93;;;60.27;;
21170;SDS011;10743;52.160;20.910;2023-03-14T12:14:17;225.50;;;60.20;;
21170;SDS011;10743;52.160;20.910;2023-03-14T12:17:40;222.83;;;60.37;;
21170;SDS011;10743;52.160;20.910;2023-03-14T12:22:54;227.10;;;61.83;;
21170;SDS011;10743;52.160;20.910;2023-03-14T12:25:29;220.17;;;62.47;;
21170;SDS011;10743;52.160;20.910;2023-03-14T12:30:46;213.67;;;59.87;;
21170;SDS011;10743;52.160;20.910;2023-03-14T12:35:51;219.43;;;60.70;;
21170;SDS011;10743;52.160;20.910;2023-03-14T12:38:36;219.07;;;59.97;;
21170;SDS011;10743;52.160;20.910;2023-03-14T12:43:55;212.53;;;59.43;;
21170;SDS011;10743;52.160;20.910;2023-03-14T12:46:26;204.93;;;58.83;;
21170;SDS011;10743;52.160;20.910;2023-03-14T12:48:54;210.80;;;59.53;;
21170;SDS011;10743;52.160;20.910;2023-03-14T12:51:38;215.17;;;60.20;;
21170;SDS011;10743;52.160;20.910;2023-03-14T12:54:19;213.83;;;59.90;;
21170;SDS011;10743;52.160;20.910;2023-03-14T12:57:07;216.50;;;62.03;;
21170;SDS011;10743;52.160;20.910;2023-03-14T13:00:00;217.40;;;60.73;;
21170;SDS011;10743;52.160;20.910;2023-03-14T13:10:21;226.67;;;73.87;;
21170;SDS011;10743;52.160;20.910;2023-03-14T13:12:54;220.43;;;61.70;;
21170;SDS011;10743;52.160;20.910;2023-03-14T13:15:31;222.27;;;64.83;;
21170;SDS011;10743;52.160;20.910;2023-03-14T13:18:15;220.33;;;62.00;;
21170;SDS011;10743;52.160;20.910;2023-03-14T13:24:02;221.93;;;62.13;;
21170;SDS011;10743;52.160;20.910;2023-03-14T13:26:47;224.10;;;61.63;;
21170;SDS011;10743;52.160;20.910;2023-03-14T13:29:22;219.00;;;61.00;;
21170;SDS011;10743;52.160;20.910;2023-03-14T13:32:00;265.10;;;75.20;;
21170;SDS011;10743;52.160;20.910;2023-03-14T13:34:42;252.17;;;72.20;;
21170;SDS011;10743;52.160;20.910;2023-03-14T13:37:19;230.60;;;64.63;;
21170;SDS011;10743;52.160;20.910;2023-03-14T13:39:53;217.07;;;61.83;;
21170;SDS011;10743;52.160;20.910;2023-03-14T13:42:27;229.03;;;61.97;;
21170;SDS011;10743;52.160;20.910;2023-03-14T13:44:56;217.07;;;61.03;;
21170;SDS011;10743;52.160;20.910;2023-03-14T13:47:24;210.70;;;59.70;;
21170;SDS011;10743;52.160;20.910;2023-03-14T13:49:52;215.17;;;60.50;;
21170;SDS011;10743;52.160;20.910;2023-03-14T13:52:24;221.00;;;62.20;;
21170;SDS011;10743;52.160;20.910;2023-03-14T13:54:56;224.73;;;63.87;;
21170;SDS011;10743;52.160;20.910;2023-03-14T13:57:26;228.27;;;63.77;;
21170;SDS011;10743;52.160;20.910;2023-03-14T14:00:04;213.70;;;62.33;;
21170;SDS011;10743;52.160;20.910;2023-03-14T14:02:37;214.20;;;60.37;;
21170;SDS011;10743;52.160;20.910;2023-03-14T14:05:05;211.07;;;58.27;;
21170;SDS011;10743;52.160;20.910;2023-03-14T14:07:32;208.20;;;58.00;;
21170;SDS011;10743;52.160;20.910;2023-03-14T14:10:00;214.80;;;59.17;;
21170;SDS011;10743;52.160;20.910;2023-03-14T14:12:32;215.33;;;58.80;;
21170;SDS011;10743;52.160;20.910;2023-03-14T14:20:05;206.43;;;58.20;;
21170;SDS011;10743;52.160;20.910;2023-03-14T14:22:40;209.60;;;59.03;;
21170;SDS011;10743;52.160;20.910;2023-03-14T14:25:12;210.37;;;60.43;;
21170;SDS011;10743;52.160;20.910;2023-03-14T14:27:42;205.77;;;58.17;;
21170;SDS011;10743;52.160;20.910;2023-03-14T14:32:45;209.57;;;58.47;;
21170;SDS011;10743;52.160;20.910;2023-03-14T14:35:22;207.97;;;57.43;;
21170;SDS011;10743;52.160;20.910;2023-03-14T14:37:57;207.13;;;60.07;;
21170;SDS011;10743;52.160;20.910;2023-03-14T14:40:26;208.97;;;58.73;;
21170;SDS011;10743;52.160;20.910;2023-03-14T14:42:55;212.40;;;59.10;;
21170;SDS011;10743;52.160;20.910;2023-03-14T14:45:30;212.77;;;57.83;;
21170;SDS011;10743;52.160;20.910;2023-03-14T14:48:09;209.63;;;57.67;;
21170;SDS011;10743;52.160;20.910;2023-03-14T14:55:50;209.43;;;61.27;;
21170;SDS011;10743;52.160;20.910;2023-03-14T14:58:28;195.57;;;56.53;;
21170;SDS011;10743;52.160;20.910;2023-03-14T15:01:20;208.30;;;58.63;;
21170;SDS011;10743;52.160;20.910;2023-03-14T15:03:53;206.17;;;58.10;;
21170;SDS011;10743;52.160;20.910;2023-03-14T15:06:20;216.17;;;59.77;;
21170;SDS011;10743;52.160;20.910;2023-03-14T15:08:49;210.93;;;58.50;;
21170;SDS011;10743;52.160;20.910;2023-03-14T15:11:21;211.53;;;59.63;;
21170;SDS011;10743;52.160;20.910;2023-03-14T15:13:51;207.50;;;58.53;;
21170;SDS011;10743;52.160;20.910;2023-03-14T15:16:20;209.00;;;58.07;;
21170;SDS011;10743;52.160;20.910;2023-03-14T15:18:55;210.47;;;60.17;;
21170;SDS011;10743;52.160;20.910;2023-03-14T15:21:48;202.33;;;58.07;;
21170;SDS011;10743;52.160;20.910;2023-03-14T15:24:15;203.43;;;56.90;;
21170;SDS011;10743;52.160;20.910;2023-03-14T15:26:43;201.40;;;56.97;;
21170;SDS011;10743;52.160;20.910;2023-03-14T15:29:10;208.10;;;58.33;;
21170;SDS011;10743;52.160;20.910;2023-03-14T15:31:39;209.47;;;58.37;;
21170;SDS011;10743;52.160;20.910;2023-03-14T15:34:07;211.67;;;59.13;;
21170;SDS011;10743;52.160;20.910;2023-03-14T15:36:35;207.70;;;58.07;;
21170;SDS011;10743;52.160;20.910;2023-03-14T15:39:04;212.83;;;58.90;;
21170;SDS011;10743;52.160;20.910;2023-03-14T15:41:33;209.33;;;60.13;;
21170;SDS011;10743;52.160;20.910;2023-03-14T15:44:00;211.27;;;59.33;;
21170;SDS011;10743;52.160;20.910;2023-03-14T15:46:27;211.80;;;59.80;;
21170;SDS011;10743;52.160;20.910;2023-03-14T15:48:56;212.77;;;59.03;;
21170;SDS011;10743;52.160;20.910;2023-03-14T15:51:23;207.83;;;59.27;;
21170;SDS011;10743;52.160;20.910;2023-03-14T15:53:51;215.57;;;59.30;;
21170;SDS011;10743;52.160;20.910;2023-03-14T15:56:18;214.50;;;60.10;;
21170;SDS011;10743;52.160;20.910;2023-03-14T15:58:46;213.17;;;60.17;;
21170;SDS011;10743;52.160;20.910;2023-03-14T16:01:14;215.10;;;65.70;;